Time;durP1;ratioP1;P1;durP2;ratioP2;P2;SDS_P1;SDS_P2;PMS_P1;PMS_P2;Temp;Humidity;BMP_temperature;BMP_pressure;BME280_temperature;BME280_humidity;BME280_pressure;Samples;Min_cycle;Max_cycle;Signal;HPM_P1;HPM_P2
2023/07/16 00:09:19;;;;;;;40.55;30.00;;;16.70;99.90;;;;;;25589669;23;20032;-55
2023/07/16 00:19:21;;;;;;;47.33;33.05;;;16.70;99.90;;;;;;25593718;23;20525;-47
2023/07/16 00:29:22;;;;;;;43.42;29.83;;;16.60;99.90;;;;;;25593189;23;20005;-57
2023/07/16 00:39:24;;;;;;;43.38;31.75;;;16.40;99.90;;;;;;25593046;23;20004;-48
2023/07/16 00:49:26;;;;;;;55.42;35.45;;;16.40;99.90;;;;;;25592401;23;20004;-49
2023/07/16 00:59:28;;;;;;;59.47;37.97;;;16.50;99.90;;;;;;25591820;23;20005;-49
2023/07/16 01:09:30;;;;;;;43.67;31.27;;;16.50;99.90;;;;;;25589794;23;20005;-47
2023/07/16 01:19:33;;;;;;;42.78;28.25;;;16.40;99.90;;;;;;25590771;23;20328;-51
2023/07/16 01:30:03;;;;;;;34.50;25.05;;;16.30;99.90;;;;;;25588538;23;20444;-49
2023/07/16 01:40:08;;;;;;;31.33;22.73;;;16.20;99.90;;;;;;25631320;23;20008;-47
2023/07/16 01:50:10;;;;;;;24.48;16.63;;;16.10;99.90;;;;;;25589428;23;20017;-45
2023/07/16 02:00:12;;;;;;;22.85;13.90;;;16.10;99.90;;;;;;25589477;23;20096;-45
2023/07/16 02:10:25;;;;;;;27.80;19.73;;;16.00;99.90;;;;;;25628674;23;20009;-57
2023/07/16 02:20:27;;;;;;;22.05;15.23;;;15.90;99.90;;;;;;25588239;23;20067;-47
2023/07/16 02:30:28;;;;;;;20.10;12.20;;;15.80;99.90;;;;;;25588023;23;20016;-49
2023/07/16 02:40:30;;;;;;;15.02;10.52;;;15.60;99.90;;;;;;25588314;23;20001;-54
2023/07/16 02:50:35;;;;;;;15.48;11.27;;;15.60;99.90;;;;;;25587922;23;20020;-57
2023/07/16 03:00:37;;;;;;;16.90;12.32;;;15.60;99.90;;;;;;25589243;23;20009;-56
2023/07/16 03:10:39;;;;;;;16.10;11.90;;;15.60;99.90;;;;;;25586188;23;20009;-49
2023/07/16 03:20:40;;;;;;;19.98;12.70;;;15.60;99.90;;;;;;25587569;23;20277;-57
2023/07/16 03:30:47;;;;;;;15.57;13.00;;;15.60;99.90;;;;;;25586964;23;20008;-51
2023/07/16 03:40:49;;;;;;;16.80;12.73;;;15.60;99.90;;;;;;25586288;23;20033;-49
2023/07/16 03:50:51;;;;;;;23.60;16.80;;;15.50;99.90;;;;;;25592574;23;20020;-47
2023/07/16 04:00:53;;;;;;;20.13;14.65;;;15.60;99.90;;;;;;25592886;23;20001;-50
2023/07/16 04:10:56;;;;;;;23.95;16.42;;;15.60;99.90;;;;;;25591800;23;20074;-54
2023/07/16 04:20:58;;;;;;;25.05;18.23;;;15.70;99.90;;;;;;25593471;23;20005;-55
2023/07/16 04:30:59;;;;;;;29.05;21.88;;;15.80;99.90;;;;;;25593138;23;20001;-54
2023/07/16 04:41:01;;;;;;;32.22;20.63;;;15.90;99.90;;;;;;25594123;23;20324;-54
2023/07/16 04:51:03;;;;;;;31.38;21.83;;;16.20;99.90;;;;;;25592002;23;20063;-57
2023/07/16 05:01:05;;;;;;;32.35;23.80;;;16.50;99.90;;;;;;25590275;23;20061;-55
2023/07/16 05:11:06;;;;;;;34.22;25.67;;;16.60;99.90;;;;;;25591355;23;20385;-49
2023/07/16 05:21:08;;;;;;;32.85;23.48;;;16.60;99.90;;;;;;25591317;23;20067;-49
2023/07/16 05:31:10;;;;;;;30.05;21.88;;;16.60;99.90;;;;;;25590442;23;20001;-54
2023/07/16 05:41:11;;;;;;;25.52;18.33;;;16.70;99.90;;;;;;25590665;23;20013;-48
2023/07/16 05:51:13;;;;;;;22.15;16.52;;;16.80;99.90;;;;;;25589622;23;20005;-46
2023/07/16 06:01:15;;;;;;;17.50;10.43;;;16.90;99.90;;;;;;25589204;23;20038;-54
2023/07/16 06:11:16;;;;;;;11.73;8.00;;;17.00;99.90;;;;;;25588766;23;20063;-48
2023/07/16 06:21:18;;;;;;;12.82;6.78;;;17.10;99.90;;;;;;25588908;23;20013;-45
2023/07/16 06:31:19;;;;;;;5.57;4.53;;;19.60;99.90;;;;;;25587773;23;20076;-57
2023/07/16 06:41:21;;;;;;;5.97;3.50;;;24.10;99.90;;;;;;25586908;23;20012;-47
2023/07/16 06:51:23;;;;;;;5.82;4.00;;;26.40;99.90;;;;;;25586901;23;20071;-59
2023/07/16 07:01:27;;;;;;;8.65;4.85;;;28.00;99.90;;;;;;25587273;23;20009;-60
2023/07/16 07:11:29;;;;;;;9.77;6.15;;;29.50;99.40;;;;;;25588842;23;20058;-59
2023/07/16 07:21:30;;;;;;;6.32;4.90;;;30.30;98.10;;;;;;25593898;23;20005;-52
2023/07/16 07:31:32;;;;;;;9.65;6.00;;;30.50;96.60;;;;;;25593851;23;20013;-60
2023/07/16 07:41:33;;;;;;;7.15;5.70;;;30.40;97.00;;;;;;25594517;23;20092;-59
2023/07/16 07:51:35;;;;;;;8.00;5.90;;;30.50;96.10;;;;;;25593473;23;20013;-52
2023/07/16 08:01:37;;;;;;;8.65;5.75;;;30.20;96.60;;;;;;25593280;23;20005;-59
2023/07/16 08:11:39;;;;;;;7.03;5.60;;;30.20;97.30;;;;;;25594113;23;20009;-49
2023/07/16 08:21:40;;;;;;;7.30;6.60;;;29.80;98.60;;;;;;25592881;23;20001;-57
2023/07/16 08:43:47;;;;;;;9.25;6.75;;;30.10;98.10;;;;;;25563649;23;20087;-59
2023/07/16 08:53:49;;;;;;;11.07;9.13;;;30.20;99.40;;;;;;25592234;23;20016;-59
2023/07/16 09:03:50;;;;;;;8.57;7.15;;;30.60;98.80;;;;;;25591219;23;20040;-59
2023/07/16 09:13:55;;;;;;;8.38;6.20;;;30.10;97.90;;;;;;25592337;23;20016;-59
2023/07/16 09:23:57;;;;;;;10.85;7.70;;;30.10;98.20;;;;;;25591727;23;20051;-59
2023/07/16 09:33:59;;;;;;;9.88;7.35;;;30.30;98.90;;;;;;25591545;23;20016;-54
2023/07/16 09:44:01;;;;;;;8.68;7.15;;;30.40;98.40;;;;;;25590554;23;20012;-51
2023/07/16 09:54:03;;;;;;;6.15;5.35;;;30.60;98.20;;;;;;25591093;23;20112;-59
2023/07/16 10:04:16;;;;;;;6.22;4.47;;;30.40;97.20;;;;;;25588112;23;20005;-59
2023/07/16 10:14:25;;;;;;;6.10;4.55;;;30.20;95.30;;;;;;25630556;23;20004;-51
2023/07/16 10:24:30;;;;;;;6.32;4.78;;;29.70;96.90;;;;;;25631521;23;20005;-58
2023/07/16 10:34:31;;;;;;;6.20;5.60;;;29.90;96.90;;;;;;25588517;23;20001;-50
2023/07/16 10:44:33;;;;;;;10.15;5.95;;;30.30;96.70;;;;;;25629890;23;20009;-51
2023/07/16 10:54:35;;;;;;;8.10;6.13;;;30.10;97.00;;;;;;25588290;23;20482;-58
2023/07/16 11:04:37;;;;;;;8.52;5.70;;;29.70;98.30;;;;;;25587986;23;20005;-58
2023/07/16 11:14:42;;;;;;;7.55;6.35;;;29.90;97.50;;;;;;25588345;23;20310;-59
2023/07/16 11:24:50;;;;;;;11.37;6.50;;;29.80;98.60;;;;;;25589207;23;20510;-58
2023/07/16 11:34:53;;;;;;;6.63;5.45;;;29.90;98.60;;;;;;25586614;23;20013;-58
2023/07/16 11:44:56;;;;;;;9.35;5.60;;;29.90;98.80;;;;;;25630573;23;20005;-58
2023/07/16 11:55:03;;;;;;;7.20;4.78;;;30.10;96.10;;;;;;25588353;23;20163;-58
2023/07/16 12:05:06;;;;;;;6.72;4.25;;;29.90;98.20;;;;;;25588917;23;20376;-58
2023/07/16 12:15:09;;;;;;;6.15;4.68;;;30.00;95.10;;;;;;25594563;23;20012;-58
2023/07/16 12:25:10;;;;;;;7.38;4.93;;;29.90;97.10;;;;;;25594188;23;20005;-58
2023/07/16 12:35:12;;;;;;;6.95;4.80;;;30.30;95.10;;;;;;25593642;23;20437;-58
2023/07/16 12:45:13;;;;;;;8.85;4.68;;;30.20;94.50;;;;;;25593314;23;20009;-58
2023/07/16 12:55:19;;;;;;;6.40;4.20;;;30.40;95.30;;;;;;25592789;23;20522;-58
2023/07/16 13:05:20;;;;;;;5.72;4.03;;;30.50;96.40;;;;;;25591608;23;20376;-58
2023/07/16 13:15:22;;;;;;;8.20;3.65;;;30.60;93.40;;;;;;25592897;23;20059;-58
2023/07/16 13:25:23;;;;;;;6.63;3.47;;;30.50;94.00;;;;;;25591672;23;20510;-58
2023/07/16 13:35:25;;;;;;;4.18;2.67;;;30.50;91.80;;;;;;25591136;23;20091;-58
2023/07/16 13:45:27;;;;;;;4.30;3.47;;;30.40;92.40;;;;;;25590676;23;20048;-58
2023/07/16 13:55:29;;;;;;;3.72;2.70;;;30.50;92.30;;;;;;25590417;23;20009;-58
2023/07/16 14:05:34;;;;;;;4.15;2.75;;;30.70;90.40;;;;;;25589270;23;20001;-58
2023/07/16 14:15:36;;;;;;;5.00;3.03;;;30.80;87.80;;;;;;25589046;23;20424;-58
2023/07/16 14:25:38;;;;;;;3.65;2.78;;;30.80;89.80;;;;;;25589296;23;20360;-58
2023/07/16 14:35:39;;;;;;;3.15;2.65;;;31.00;88.90;;;;;;25589145;23;20424;-58
2023/07/16 14:45:41;;;;;;;6.63;4.03;;;31.00;87.10;;;;;;25588279;23;20390;-58
2023/07/16 14:55:50;;;;;;;9.25;4.00;;;31.10;89.20;;;;;;25588144;23;20005;-58
2023/07/16 15:05:57;;;;;;;6.85;4.25;;;31.40;90.70;;;;;;25587999;23;20005;-58
2023/07/16 15:16:00;;;;;;;5.53;4.38;;;31.30;90.10;;;;;;25587621;23;20035;-58
2023/07/16 15:26:06;;;;;;;6.85;4.32;;;31.70;90.40;;;;;;25587929;23;20016;-58
2023/07/16 15:36:11;;;;;;;8.05;5.07;;;31.90;89.30;;;;;;25624121;23;20069;-58
2023/07/16 15:46:13;;;;;;;9.77;4.80;;;31.60;88.40;;;;;;25595063;23;20005;-58
2023/07/16 15:56:15;;;;;;;7.47;4.70;;;31.20;89.60;;;;;;25595513;23;20005;-57
2023/07/16 16:06:16;;;;;;;8.45;4.70;;;30.50;89.20;;;;;;25593614;23;20380;-58
2023/07/16 16:16:18;;;;;;;10.90;4.78;;;29.70;90.40;;;;;;25594558;23;20012;-57
2023/07/16 16:26:21;;;;;;;8.45;3.60;;;28.00;91.60;;;;;;25593341;23;20009;-57
2023/07/16 16:36:23;;;;;;;5.13;3.50;;;26.40;94.50;;;;;;25592181;23;20083;-58
2023/07/16 16:46:24;;;;;;;8.35;4.03;;;25.50;95.60;;;;;;25592396;23;20009;-58
2023/07/16 16:56:26;;;;;;;6.53;4.10;;;24.80;94.70;;;;;;25592579;23;20005;-58
2023/07/16 17:06:28;;;;;;;6.68;4.60;;;23.50;96.90;;;;;;25590314;23;20005;-58
2023/07/16 17:16:29;;;;;;;8.50;4.43;;;22.30;99.70;;;;;;25591621;23;20009;-58
2023/07/16 17:26:31;;;;;;;10.45;4.78;;;21.50;99.90;;;;;;25591872;23;20067;-58
2023/07/16 17:36:32;;;;;;;13.38;5.35;;;21.10;99.90;;;;;;25590037;23;20016;-58
2023/07/16 17:46:34;;;;;;;7.40;4.80;;;20.80;99.90;;;;;;25590677;23;20013;-57
2023/07/16 17:56:36;;;;;;;10.02;4.97;;;20.40;99.90;;;;;;25590572;23;20005;-57
2023/07/16 18:06:38;;;;;;;9.25;5.10;;;20.00;99.90;;;;;;25589357;23;20001;-57
2023/07/16 18:16:39;;;;;;;12.57;6.03;;;19.70;99.90;;;;;;25590844;23;20068;-57
2023/07/16 18:26:41;;;;;;;11.25;4.95;;;19.60;99.90;;;;;;25589162;23;20067;-57
2023/07/16 18:36:42;;;;;;;10.18;4.80;;;19.60;99.90;;;;;;25587672;23;20395;-51
2023/07/16 18:46:45;;;;;;;11.57;5.22;;;19.50;99.90;;;;;;25588764;23;20012;-57
2023/07/16 18:56:46;;;;;;;9.98;5.35;;;19.60;99.90;;;;;;25588490;23;20005;-57
2023/07/16 19:06:49;;;;;;;12.32;5.47;;;19.50;99.90;;;;;;25586706;23;20506;-57
2023/07/16 19:16:51;;;;;;;8.52;5.72;;;19.00;99.90;;;;;;25593392;23;20324;-56
2023/07/16 19:26:53;;;;;;;10.80;6.00;;;18.80;99.90;;;;;;25595710;23;20013;-57
2023/07/16 19:36:54;;;;;;;12.35;6.35;;;18.80;99.90;;;;;;25595499;23;20032;-55
2023/07/16 19:46:56;;;;;;;12.35;6.60;;;18.80;99.90;;;;;;25594899;23;20005;-56
2023/07/16 19:56:58;;;;;;;9.98;5.97;;;18.90;99.90;;;;;;25594375;23;20051;-51
2023/07/16 20:06:59;;;;;;;14.70;7.75;;;18.80;99.90;;;;;;25594254;23;20005;-57
2023/07/16 20:17:01;;;;;;;13.93;7.88;;;18.80;99.90;;;;;;25593947;23;20036;-56
2023/07/16 20:27:03;;;;;;;13.57;8.65;;;18.80;99.90;;;;;;25593113;23;20009;-56
2023/07/16 20:37:05;;;;;;;14.45;7.88;;;18.80;99.90;;;;;;25592861;23;20105;-51
2023/07/16 20:47:07;;;;;;;12.30;8.05;;;18.80;99.90;;;;;;25592378;23;20013;-56
2023/07/16 20:57:08;;;;;;;12.98;8.30;;;18.80;99.90;;;;;;25592216;23;20028;-56
2023/07/16 21:07:11;;;;;;;11.10;7.30;;;18.80;99.90;;;;;;25591679;23;20005;-57
2023/07/16 21:17:12;;;;;;;10.43;6.57;;;18.60;99.90;;;;;;25591590;23;20498;-48
2023/07/16 21:27:14;;;;;;;13.10;6.57;;;18.60;99.90;;;;;;25589700;23;20224;-56
2023/07/16 21:37:16;;;;;;;12.10;7.30;;;18.60;99.90;;;;;;25590309;23;20017;-56
2023/07/16 21:47:18;;;;;;;11.93;7.82;;;18.60;99.90;;;;;;25590134;23;20387;-56
2023/07/16 21:57:19;;;;;;;14.70;9.20;;;18.60;99.90;;;;;;25589982;23;20100;-51
2023/07/16 22:07:21;;;;;;;14.35;9.70;;;18.50;99.90;;;;;;25589261;23;20005;-56
2023/07/16 22:17:24;;;;;;;10.98;9.57;;;18.30;99.90;;;;;;25587628;23;20380;-56
2023/07/16 22:27:25;;;;;;;17.70;9.70;;;18.20;99.90;;;;;;25588852;23;20041;-55
2023/07/16 22:37:27;;;;;;;15.85;10.52;;;18.10;99.90;;;;;;25588433;23;20013;-56
2023/07/16 22:47:28;;;;;;;16.67;10.32;;;18.10;99.90;;;;;;25588032;23;20009;-56
2023/07/16 22:57:30;;;;;;;15.98;10.73;;;18.00;99.90;;;;;;25589482;23;20005;-55
2023/07/16 23:07:32;;;;;;;20.20;12.35;;;17.90;99.90;;;;;;25587683;23;20376;-56
2023/07/16 23:17:33;;;;;;;17.58;11.88;;;17.80;99.90;;;;;;25587866;23;20005;-53
2023/07/16 23:27:35;;;;;;;17.58;11.02;;;17.90;99.90;;;;;;25587286;23;20029;-55
2023/07/16 23:37:36;;;;;;;14.35;11.30;;;18.20;99.90;;;;;;25585485;23;20013;-54
2023/07/16 23:47:38;;;;;;;14.15;10.18;;;18.40;99.90;;;;;;25586873;23;20502;-54
2023/07/16 23:57:39;;;;;;;13.05;10.40;;;18.10;99.90;;;;;;25588465;23;20005;-56
